sensor_id;sensor_type;location;lat;lon;timestamp;pressure;altitude;pressure_sealevel;temperature;humidity
76448;BME280;65284;51.040;13.722;2023-03-14T00:02:26;97882.50;;;10.42;91.54
76448;BME280;65284;51.040;13.722;2023-03-14T00:04:54;97870.69;;;10.31;91.51
76448;BME280;65284;51.040;13.722;2023-03-14T00:07:22;97876.00;;;10.31;91.74
76448;BME280;65284;51.040;13.722;2023-03-14T00:09:51;97848.50;;;10.19;92.09
76448;BME280;65284;51.040;13.722;2023-03-14T00:12:18;97851.53;;;10.22;91.89
76448;BME280;65284;51.040;13.722;2023-03-14T00:14:44;97840.53;;;10.19;91.93
76448;BME280;65284;51.040;13.722;2023-03-14T00:17:10;97827.09;;;10.14;92.07
76448;BME280;65284;51.040;13.722;2023-03-14T00:19:37;97823.44;;;10.08;92.46
76448;BME280;65284;51.040;13.722;2023-03-14T00:22:04;97815.91;;;10.05;92.02
76448;BME280;65284;51.040;13.722;2023-03-14T00:24:30;97820.59;;;10.10;92.16
76448;BME280;65284;51.040;13.722;2023-03-14T00:26:56;97814.47;;;10.02;92.47
76448;BME280;65284;51.040;13.722;2023-03-14T00:29:23;97816.56;;;10.00;92.26
76448;BME280;65284;51.040;13.722;2023-03-14T00:31:49;97821.28;;;9.92;92.93
76448;BME280;65284;51.040;13.722;2023-03-14T00:34:16;97814.13;;;9.92;92.86
76448;BME280;65284;51.040;13.722;2023-03-14T00:36:42;97824.31;;;9.95;92.62
76448;BME280;65284;51.040;13.722;2023-03-14T00:39:08;97825.78;;;9.91;93.08
76448;BME280;65284;51.040;13.722;2023-03-14T00:41:35;97835.56;;;9.84;93.12
76448;BME280;65284;51.040;13.722;2023-03-14T00:44:01;97846.78;;;9.86;92.85
76448;BME280;65284;51.040;13.722;2023-03-14T00:46:28;97858.59;;;9.90;92.78
76448;BME280;65284;51.040;13.722;2023-03-14T00:48:54;97847.81;;;9.85;92.57
76448;BME280;65284;51.040;13.722;2023-03-14T00:51:20;97853.72;;;9.87;92.76
76448;BME280;65284;51.040;13.722;2023-03-14T00:53:47;97844.34;;;9.85;92.86
76448;BME280;65284;51.040;13.722;2023-03-14T00:56:14;97853.72;;;9.87;92.57
76448;BME280;65284;51.040;13.722;2023-03-14T00:58:40;97852.53;;;9.83;92.67
76448;BME280;65284;51.040;13.722;2023-03-14T01:01:09;97850.47;;;9.85;92.40
76448;BME280;65284;51.040;13.722;2023-03-14T01:03:36;97860.66;;;9.82;92.95
76448;BME280;65284;51.040;13.722;2023-03-14T01:06:13;97869.25;;;9.77;93.00
76448;BME280;65284;51.040;13.722;2023-03-14T01:08:41;97860.69;;;9.75;92.91
76448;BME280;65284;51.040;13.722;2023-03-14T01:11:13;97870.09;;;9.71;93.28
76448;BME280;65284;51.040;13.722;2023-03-14T01:13:41;97866.41;;;9.72;93.10
76448;BME280;65284;51.040;13.722;2023-03-14T01:16:09;97875.41;;;9.71;93.25
76448;BME280;65284;51.040;13.722;2023-03-14T01:18:37;97854.56;;;9.81;92.22
76448;BME280;65284;51.040;13.722;2023-03-14T01:21:12;97838.66;;;9.81;92.20
76448;BME280;65284;51.040;13.722;2023-03-14T01:23:39;97833.34;;;9.81;91.93
76448;BME280;65284;51.040;13.722;2023-03-14T01:26:09;97834.16;;;9.82;91.77
76448;BME280;65284;51.040;13.722;2023-03-14T01:28:36;97837.41;;;9.84;91.18
76448;BME280;65284;51.040;13.722;2023-03-14T01:31:08;97833.34;;;9.81;91.37
76448;BME280;65284;51.040;13.722;2023-03-14T01:33:35;97845.53;;;9.95;89.88
76448;BME280;65284;51.040;13.722;2023-03-14T01:36:03;97845.50;;;10.09;88.75
76448;BME280;65284;51.040;13.722;2023-03-14T01:38:30;97849.13;;;10.14;88.41
76448;BME280;65284;51.040;13.722;2023-03-14T01:40:57;97852.34;;;10.23;87.58
76448;BME280;65284;51.040;13.722;2023-03-14T01:43:25;97848.69;;;10.24;87.80
76448;BME280;65284;51.040;13.722;2023-03-14T01:48:40;97840.66;;;10.37;86.76
76448;BME280;65284;51.040;13.722;2023-03-14T01:51:14;97840.25;;;10.40;86.38
76448;BME280;65284;51.040;13.722;2023-03-14T01:53:44;97815.50;;;10.46;85.48
76448;BME280;65284;51.040;13.722;2023-03-14T01:56:13;97810.56;;;10.57;84.77
76448;BME280;65284;51.040;13.722;2023-03-14T01:58:41;97829.72;;;10.59;84.68
76448;BME280;65284;51.040;13.722;2023-03-14T02:01:10;97825.63;;;10.63;84.11
76448;BME280;65284;51.040;13.722;2023-03-14T02:03:46;97823.81;;;10.57;84.31
76448;BME280;65284;51.040;13.722;2023-03-14T02:06:13;97825.44;;;10.58;84.09
76448;BME280;65284;51.040;13.722;2023-03-14T02:08:40;97822.53;;;10.66;82.57
76448;BME280;65284;51.040;13.722;2023-03-14T02:11:07;97816.56;;;10.70;82.46
76448;BME280;65284;51.040;13.722;2023-03-14T02:13:34;97813.97;;;10.64;82.72
76448;BME280;65284;51.040;13.722;2023-03-14T02:16:01;97817.22;;;10.66;82.48
76448;BME280;65284;51.040;13.722;2023-03-14T02:18:27;97797.81;;;10.65;82.04
76448;BME280;65284;51.040;13.722;2023-03-14T02:21:05;97811.16;;;10.84;79.66
76448;BME280;65284;51.040;13.722;2023-03-14T02:23:58;97809.53;;;10.83;80.00
76448;BME280;65284;51.040;13.722;2023-03-14T02:26:38;97806.66;;;10.84;79.38
76448;BME280;65284;51.040;13.722;2023-03-14T02:29:07;97791.34;;;10.86;79.32
76448;BME280;65284;51.040;13.722;2023-03-14T02:31:33;97804.38;;;10.88;79.21
76448;BME280;65284;51.040;13.722;2023-03-14T02:34:00;97795.59;;;10.87;78.42
76448;BME280;65284;51.040;13.722;2023-03-14T02:36:28;97800.03;;;10.93;77.22
76448;BME280;65284;51.040;13.722;2023-03-14T02:39:07;97795.53;;;10.94;77.01
76448;BME280;65284;51.040;13.722;2023-03-14T02:41:37;97808.34;;;11.04;77.08
76448;BME280;65284;51.040;13.722;2023-03-14T02:44:03;97811.31;;;11.14;75.45
76448;BME280;65284;51.040;13.722;2023-03-14T02:46:30;97801.28;;;11.34;74.20
76448;BME280;65284;51.040;13.722;2023-03-14T02:49:08;97806.78;;;11.39;74.65
76448;BME280;65284;51.040;13.722;2023-03-14T02:51:37;97807.41;;;11.35;74.44
76448;BME280;65284;51.040;13.722;2023-03-14T02:54:03;97807.94;;;11.25;74.83
76448;BME280;65284;51.040;13.722;2023-03-14T02:56:30;97802.19;;;11.28;74.31
76448;BME280;65284;51.040;13.722;2023-03-14T02:58:56;97807.06;;;11.31;73.76
76448;BME280;65284;51.040;13.722;2023-03-14T03:01:24;97805.81;;;11.34;73.81
76448;BME280;65284;51.040;13.722;2023-03-14T03:03:50;97802.91;;;11.35;73.57
76448;BME280;65284;51.040;13.722;2023-03-14T03:06:17;97802.47;;;11.38;72.87
76448;BME280;65284;51.040;13.722;2023-03-14T03:08:43;97795.09;;;11.41;73.21
76448;BME280;65284;51.040;13.722;2023-03-14T03:11:10;97778.19;;;11.35;72.92
76448;BME280;65284;51.040;13.722;2023-03-14T03:13:36;97783.44;;;11.42;72.85
76448;BME280;65284;51.040;13.722;2023-03-14T03:16:03;97780.47;;;11.31;73.43
76448;BME280;65284;51.040;13.722;2023-03-14T03:18:30;97770.28;;;11.28;72.76
76448;BME280;65284;51.040;13.722;2023-03-14T03:21:00;97777.66;;;11.26;74.11
76448;BME280;65284;51.040;13.722;2023-03-14T03:23:27;97782.09;;;11.32;73.06
76448;BME280;65284;51.040;13.722;2023-03-14T03:25:53;97776.50;;;11.22;73.97
76448;BME280;65284;51.040;13.722;2023-03-14T03:28:20;97775.16;;;11.31;72.35
76448;BME280;65284;51.040;13.722;2023-03-14T03:30:46;97781.97;;;11.27;72.41
76448;BME280;65284;51.040;13.722;2023-03-14T03:33:13;97785.50;;;11.21;73.46
76448;BME280;65284;51.040;13.722;2023-03-14T03:35:48;97788.72;;;11.23;72.71
76448;BME280;65284;51.040;13.722;2023-03-14T03:38:14;97781.34;;;11.25;71.99
76448;BME280;65284;51.040;13.722;2023-03-14T03:40:42;97791.91;;;11.32;71.60
76448;BME280;65284;51.040;13.722;2023-03-14T03:43:08;97794.81;;;11.30;71.98
76448;BME280;65284;51.040;13.722;2023-03-14T03:45:35;97798.03;;;11.32;72.40
76448;BME280;65284;51.040;13.722;2023-03-14T03:48:01;97787.81;;;11.36;72.01
76448;BME280;65284;51.040;13.722;2023-03-14T03:50:27;97799.78;;;11.20;72.75
76448;BME280;65284;51.040;13.722;2023-03-14T03:52:54;97784.47;;;11.22;72.04
76448;BME280;65284;51.040;13.722;2023-03-14T03:55:20;97791.81;;;11.20;72.56
76448;BME280;65284;51.040;13.722;2023-03-14T03:57:46;97795.19;;;11.09;72.91
76448;BME280;65284;51.040;13.722;2023-03-14T04:00:13;97786.69;;;11.25;72.61
76448;BME280;65284;51.040;13.722;2023-03-14T04:02:39;97784.66;;;11.21;71.59
76448;BME280;65284;51.040;13.722;2023-03-14T04:05:06;97768.34;;;11.17;71.63
76448;BME280;65284;51.040;13.722;2023-03-14T04:07:33;97772.94;;;11.10;71.81
76448;BME280;65284;51.040;13.722;2023-03-14T04:09:59;97782.34;;;11.06;73.13
76448;BME280;65284;51.040;13.722;2023-03-14T04:12:26;97788.53;;;11.00;72.80
76448;BME280;65284;51.040;13.722;2023-03-14T04:14:52;97794.72;;;10.93;74.00
76448;BME280;65284;51.040;13.722;2023-03-14T04:17:18;97789.41;;;10.93;73.46
76448;BME280;65284;51.040;13.722;2023-03-14T04:19:46;97793.72;;;10.95;72.66
76448;BME280;65284;51.040;13.722;2023-03-14T04:22:15;97799.97;;;11.00;71.58
76448;BME280;65284;51.040;13.722;2023-03-14T04:24:42;97795.09;;;10.97;72.19
76448;BME280;65284;51.040;13.722;2023-03-14T04:27:08;97797.56;;;10.99;72.90
76448;BME280;65284;51.040;13.722;2023-03-14T04:29:34;97801.50;;;10.89;73.44
76448;BME280;65284;51.040;13.722;2023-03-14T04:32:01;97789.09;;;10.83;73.81
76448;BME280;65284;51.040;13.722;2023-03-14T04:34:27;97780.09;;;10.84;72.50
76448;BME280;65284;51.040;13.722;2023-03-14T04:36:54;97782.75;;;10.84;72.80
76448;BME280;65284;51.040;13.722;2023-03-14T04:39:20;97767.25;;;10.81;72.71
76448;BME280;65284;51.040;13.722;2023-03-14T04:41:46;97787.91;;;10.79;74.28
76448;BME280;65284;51.040;13.722;2023-03-14T04:44:13;97779.59;;;10.94;71.89
76448;BME280;65284;51.040;13.722;2023-03-14T04:46:39;97771.63;;;10.94;70.40
76448;BME280;65284;51.040;13.722;2023-03-14T04:49:05;97765.50;;;10.93;71.24
76448;BME280;65284;51.040;13.722;2023-03-14T04:51:32;97771.44;;;10.96;70.76
76448;BME280;65284;51.040;13.722;2023-03-14T04:53:58;97761.25;;;10.92;70.28
76448;BME280;65284;51.040;13.722;2023-03-14T04:56:25;97766.56;;;10.92;70.35
76448;BME280;65284;51.040;13.722;2023-03-14T04:58:53;97775.16;;;10.88;71.06
76448;BME280;65284;51.040;13.722;2023-03-14T05:01:20;97779.22;;;10.90;70.75
76448;BME280;65284;51.040;13.722;2023-03-14T05:03:46;97775.56;;;10.91;70.62
76448;BME280;65284;51.040;13.722;2023-03-14T05:06:12;97747.00;;;10.87;70.46
76448;BME280;65284;51.040;13.722;2023-03-14T05:08:39;97737.19;;;10.87;70.01
76448;BME280;65284;51.040;13.722;2023-03-14T05:11:05;97748.13;;;10.98;70.07
76448;BME280;65284;51.040;13.722;2023-03-14T05:13:31;97740.28;;;10.84;70.66
76448;BME280;65284;51.040;13.722;2023-03-14T05:16:09;97747.19;;;10.85;70.12
76448;BME280;65284;51.040;13.722;2023-03-14T05:18:37;97760.47;;;10.85;69.63
76448;BME280;65284;51.040;13.722;2023-03-14T05:21:03;97758.41;;;10.87;69.83
76448;BME280;65284;51.040;13.722;2023-03-14T05:23:30;97765.69;;;10.99;69.16
76448;BME280;65284;51.040;13.722;2023-03-14T05:25:56;97762.75;;;10.82;70.36
76448;BME280;65284;51.040;13.722;2023-03-14T05:28:23;97753.97;;;10.81;69.97
76448;BME280;65284;51.040;13.722;2023-03-14T05:30:49;97763.44;;;10.77;70.30
76448;BME280;65284;51.040;13.722;2023-03-14T05:33:15;97758.78;;;10.91;69.66
76448;BME280;65284;51.040;13.722;2023-03-14T05:35:42;97741.50;;;10.82;70.04
76448;BME280;65284;51.040;13.722;2023-03-14T05:38:09;97740.44;;;10.89;68.94
76448;BME280;65284;51.040;13.722;2023-03-14T05:40:35;97764.16;;;10.84;69.52
76448;BME280;65284;51.040;13.722;2023-03-14T05:43:01;97748.41;;;10.89;69.71
76448;BME280;65284;51.040;13.722;2023-03-14T05:45:28;97745.22;;;10.81;69.52
76448;BME280;65284;51.040;13.722;2023-03-14T05:47:54;97731.56;;;10.77;69.19
76448;BME280;65284;51.040;13.722;2023-03-14T05:50:21;97738.13;;;10.75;70.18
76448;BME280;65284;51.040;13.722;2023-03-14T05:52:47;97719.41;;;10.88;69.23
76448;BME280;65284;51.040;13.722;2023-03-14T05:55:13;97737.25;;;10.81;69.84
76448;BME280;65284;51.040;13.722;2023-03-14T05:57:40;97734.78;;;10.79;69.17
76448;BME280;65284;51.040;13.722;2023-03-14T06:00:07;97729.47;;;10.79;69.78
76448;BME280;65284;51.040;13.722;2023-03-14T06:02:33;97727.44;;;10.81;69.14
76448;BME280;65284;51.040;13.722;2023-03-14T06:05:00;97718.59;;;10.87;68.72
76448;BME280;65284;51.040;13.722;2023-03-14T06:07:26;97713.88;;;10.89;69.27
76448;BME280;65284;51.040;13.722;2023-03-14T06:09:52;97706.97;;;10.88;69.15
76448;BME280;65284;51.040;13.722;2023-03-14T06:12:19;97722.44;;;10.91;68.33
76448;BME280;65284;51.040;13.722;2023-03-14T06:14:45;97716.31;;;10.91;67.97
76448;BME280;65284;51.040;13.722;2023-03-14T06:17:12;97721.25;;;10.87;68.76
76448;BME280;65284;51.040;13.722;2023-03-14T06:19:38;97726.22;;;11.02;68.26
76448;BME280;65284;51.040;13.722;2023-03-14T06:22:04;97748.13;;;10.98;68.37
76448;BME280;65284;51.040;13.722;2023-03-14T06:24:31;97742.84;;;10.91;69.07
76448;BME280;65284;51.040;13.722;2023-03-14T06:26:57;97740.59;;;10.95;68.51
76448;BME280;65284;51.040;13.722;2023-03-14T06:29:23;97757.53;;;10.93;68.39
76448;BME280;65284;51.040;13.722;2023-03-14T06:31:50;97749.75;;;10.99;67.85
76448;BME280;65284;51.040;13.722;2023-03-14T06:34:16;97746.50;;;10.97;67.99
76448;BME280;65284;51.040;13.722;2023-03-14T06:36:43;97756.09;;;10.98;68.46
76448;BME280;65284;51.040;13.722;2023-03-14T06:39:09;97771.50;;;10.89;68.59
76448;BME280;65284;51.040;13.722;2023-03-14T06:41:35;97777.19;;;10.92;68.88
76448;BME280;65284;51.040;13.722;2023-03-14T06:44:02;97789.84;;;10.90;68.72
76448;BME280;65284;51.040;13.722;2023-03-14T06:46:28;97785.75;;;10.95;68.75
76448;BME280;65284;51.040;13.722;2023-03-14T06:48:55;97770.34;;;11.03;68.88
76448;BME280;65284;51.040;13.722;2023-03-14T06:51:22;97778.53;;;11.02;68.82
76448;BME280;65284;51.040;13.722;2023-03-14T06:53:50;97768.44;;;11.10;68.42
76448;BME280;65284;51.040;13.722;2023-03-14T06:56:16;97767.25;;;11.06;68.22
76448;BME280;65284;51.040;13.722;2023-03-14T06:58:42;97782.53;;;11.11;67.98
76448;BME280;65284;51.040;13.722;2023-03-14T07:01:35;97786.66;;;11.07;68.63
76448;BME280;65284;51.040;13.722;2023-03-14T07:04:02;97780.31;;;11.08;68.62
76448;BME280;65284;51.040;13.722;2023-03-14T07:06:28;97765.41;;;11.07;67.64
76448;BME280;65284;51.040;13.722;2023-03-14T07:08:57;97763.91;;;11.11;68.23
76448;BME280;65284;51.040;13.722;2023-03-14T07:11:24;97762.44;;;11.15;68.44
76448;BME280;65284;51.040;13.722;2023-03-14T07:13:50;97761.44;;;11.16;68.02
76448;BME280;65284;51.040;13.722;2023-03-14T07:16:17;97765.69;;;11.17;68.28
76448;BME280;65284;51.040;13.722;2023-03-14T07:18:43;97772.66;;;11.18;68.25
76448;BME280;65284;51.040;13.722;2023-03-14T07:21:09;97778.09;;;11.23;68.02
76448;BME280;65284;51.040;13.722;2023-03-14T07:23:36;97789.59;;;11.17;68.30
76448;BME280;65284;51.040;13.722;2023-03-14T07:26:02;97791.81;;;11.20;67.78
76448;BME280;65284;51.040;13.722;2023-03-14T07:28:29;97780.75;;;11.23;67.85
76448;BME280;65284;51.040;13.722;2023-03-14T07:30:56;97789.53;;;11.24;67.81
76448;BME280;65284;51.040;13.722;2023-03-14T07:33:22;97786.69;;;11.25;67.99
76448;BME280;65284;51.040;13.722;2023-03-14T07:35:49;97793.94;;;11.36;67.72
76448;BME280;65284;51.040;13.722;2023-03-14T07:38:16;97787.84;;;11.29;67.60
76448;BME280;65284;51.040;13.722;2023-03-14T07:40:43;97785.06;;;11.24;68.72
76448;BME280;65284;51.040;13.722;2023-03-14T07:43:09;97791.63;;;11.22;68.96
76448;BME280;65284;51.040;13.722;2023-03-14T07:45:36;97796.94;;;11.22;68.57
76448;BME280;65284;51.040;13.722;2023-03-14T07:48:08;97790.38;;;11.24;69.14
76448;BME280;65284;51.040;13.722;2023-03-14T07:50:34;97792.78;;;11.26;68.12
76448;BME280;65284;51.040;13.722;2023-03-14T07:53:00;97791.47;;;11.35;67.48
76448;BME280;65284;51.040;13.722;2023-03-14T07:55:27;97789.78;;;11.41;67.35
76448;BME280;65284;51.040;13.722;2023-03-14T07:57:53;97792.22;;;11.42;67.69
76448;BME280;65284;51.040;13.722;2023-03-14T08:00:20;97797.16;;;11.38;67.96
76448;BME280;65284;51.040;13.722;2023-03-14T08:02:46;97782.03;;;11.39;68.40
76448;BME280;65284;51.040;13.722;2023-03-14T08:05:13;97776.13;;;11.37;68.07
76448;BME280;65284;51.040;13.722;2023-03-14T08:07:39;97777.97;;;11.36;68.32
76448;BME280;65284;51.040;13.722;2023-03-14T08:10:06;97781.53;;;11.49;67.64
76448;BME280;65284;51.040;13.722;2023-03-14T08:12:33;97775.97;;;11.50;67.27
76448;BME280;65284;51.040;13.722;2023-03-14T08:14:59;97779.59;;;11.56;66.50
76448;BME280;65284;51.040;13.722;2023-03-14T08:17:26;97773.69;;;11.54;66.36
76448;BME280;65284;51.040;13.722;2023-03-14T08:19:54;97782.84;;;11.58;66.75
76448;BME280;65284;51.040;13.722;2023-03-14T08:22:20;97774.13;;;11.69;65.98
76448;BME280;65284;51.040;13.722;2023-03-14T08:24:46;97782.84;;;11.76;66.11
76448;BME280;65284;51.040;13.722;2023-03-14T08:27:13;97779.59;;;11.74;66.00
76448;BME280;65284;51.040;13.722;2023-03-14T08:29:41;97776.84;;;11.81;65.62
76448;BME280;65284;51.040;13.722;2023-03-14T08:32:08;97782.38;;;11.79;66.05
76448;BME280;65284;51.040;13.722;2023-03-14T08:34:34;97777.06;;;11.79;65.70
76448;BME280;65284;51.040;13.722;2023-03-14T08:37:01;97784.78;;;11.88;64.75
76448;BME280;65284;51.040;13.722;2023-03-14T08:39:31;97773.69;;;11.91;64.52
76448;BME280;65284;51.040;13.722;2023-03-14T08:41:58;97774.28;;;11.93;63.38
76448;BME280;65284;51.040;13.722;2023-03-14T08:44:24;97770.72;;;11.99;63.44
76448;BME280;65284;51.040;13.722;2023-03-14T08:46:51;97776.75;;;12.06;62.39
76448;BME280;65284;51.040;13.722;2023-03-14T08:49:18;97771.13;;;12.14;62.38
76448;BME280;65284;51.040;13.722;2023-03-14T08:51:47;97770.66;;;12.17;62.80
76448;BME280;65284;51.040;13.722;2023-03-14T08:54:13;97772.16;;;12.13;62.12
76448;BME280;65284;51.040;13.722;2023-03-14T08:56:40;97756.31;;;12.18;62.22
76448;BME280;65284;51.040;13.722;2023-03-14T08:59:06;97778.50;;;12.12;62.67
76448;BME280;65284;51.040;13.722;2023-03-14T09:01:34;97781.91;;;12.19;61.91
76448;BME280;65284;51.040;13.722;2023-03-14T09:04:00;97764.28;;;12.18;61.02
76448;BME280;65284;51.040;13.722;2023-03-14T09:06:27;97776.28;;;12.27;61.71
76448;BME280;65284;51.040;13.722;2023-03-14T09:08:53;97762.22;;;12.20;62.07
76448;BME280;65284;51.040;13.722;2023-03-14T09:11:20;97757.19;;;12.31;61.79
76448;BME280;65284;51.040;13.722;2023-03-14T09:13:46;97740.50;;;12.23;62.47
76448;BME280;65284;51.040;13.722;2023-03-14T09:16:12;97741.56;;;12.34;62.10
76448;BME280;65284;51.040;13.722;2023-03-14T09:18:39;97759.97;;;12.36;62.26
76448;BME280;65284;51.040;13.722;2023-03-14T09:21:06;97765.28;;;12.36;61.90
76448;BME280;65284;51.040;13.722;2023-03-14T09:23:33;97769.34;;;12.38;62.32
76448;BME280;65284;51.040;13.722;2023-03-14T09:26:03;97764.94;;;12.32;62.81
76448;BME280;65284;51.040;13.722;2023-03-14T09:28:29;97773.50;;;12.34;62.73
76448;BME280;65284;51.040;13.722;2023-03-14T09:30:56;97771.69;;;12.46;61.95
76448;BME280;65284;51.040;13.722;2023-03-14T09:33:23;97765.75;;;12.33;61.79
76448;BME280;65284;51.040;13.722;2023-03-14T09:35:49;97776.28;;;12.39;62.01
76448;BME280;65284;51.040;13.722;2023-03-14T09:38:16;97771.06;;;12.33;62.19
76448;BME280;65284;51.040;13.722;2023-03-14T09:40:42;97778.59;;;12.36;62.15
76448;BME280;65284;51.040;13.722;2023-03-14T09:43:11;97774.78;;;12.32;62.38
76448;BME280;65284;51.040;13.722;2023-03-14T09:45:41;97782.75;;;12.32;61.89
76448;BME280;65284;51.040;13.722;2023-03-14T09:48:14;97779.50;;;12.29;61.77
76448;BME280;65284;51.040;13.722;2023-03-14T09:50:49;97769.56;;;12.25;62.02
76448;BME280;65284;51.040;13.722;2023-03-14T09:53:23;97776.69;;;12.24;62.29
76448;BME280;65284;51.040;13.722;2023-03-14T09:55:50;97785.88;;;12.28;61.30
76448;BME280;65284;51.040;13.722;2023-03-14T09:58:20;97796.22;;;12.18;62.09
76448;BME280;65284;51.040;13.722;2023-03-14T10:00:47;97785.03;;;12.16;61.85
76448;BME280;65284;51.040;13.722;2023-03-14T10:03:35;97784.44;;;12.14;61.94
76448;BME280;65284;51.040;13.722;2023-03-14T10:06:02;97778.41;;;12.07;61.88
76448;BME280;65284;51.040;13.722;2023-03-14T10:08:30;97785.78;;;12.05;62.07
76448;BME280;65284;51.040;13.722;2023-03-14T10:10:56;97782.81;;;12.13;61.68
76448;BME280;65284;51.040;13.722;2023-03-14T10:13:26;97783.84;;;12.12;61.51
76448;BME280;65284;51.040;13.722;2023-03-14T10:16:05;97789.16;;;12.12;61.02
76448;BME280;65284;51.040;13.722;2023-03-14T10:18:32;97797.59;;;12.09;61.64
76448;BME280;65284;51.040;13.722;2023-03-14T10:21:21;97798.63;;;12.08;61.68
76448;BME280;65284;51.040;13.722;2023-03-14T10:23:52;97791.69;;;12.07;61.89
76448;BME280;65284;51.040;13.722;2023-03-14T10:26:27;97790.50;;;12.03;61.40
76448;BME280;65284;51.040;13.722;2023-03-14T10:29:02;97782.81;;;12.13;60.98
76448;BME280;65284;51.040;13.722;2023-03-14T10:31:32;97789.03;;;12.07;61.98
76448;BME280;65284;51.040;13.722;2023-03-14T10:34:15;97778.50;;;12.12;61.17
76448;BME280;65284;51.040;13.722;2023-03-14T10:36:42;97779.34;;;12.24;61.54
76448;BME280;65284;51.040;13.722;2023-03-14T10:41:48;97777.03;;;12.16;61.11
76448;BME280;65284;51.040;13.722;2023-03-14T10:44:20;97784.56;;;12.19;60.80
76448;BME280;65284;51.040;13.722;2023-03-14T10:46:55;97782.13;;;12.18;60.86
76448;BME280;65284;51.040;13.722;2023-03-14T10:49:28;97777.03;;;12.16;61.46
76448;BME280;65284;51.040;13.722;2023-03-14T10:51:55;97778.66;;;12.17;61.21
76448;BME280;65284;51.040;13.722;2023-03-14T10:54:22;97764.75;;;12.15;61.12
76448;BME280;65284;51.040;13.722;2023-03-14T10:56:57;97784.44;;;12.14;61.20
76448;BME280;65284;51.040;13.722;2023-03-14T10:59:24;97768.59;;;12.19;60.81
76448;BME280;65284;51.040;13.722;2023-03-14T11:02:05;97785.28;;;12.26;60.46
76448;BME280;65284;51.040;13.722;2023-03-14T11:04:51;97782.16;;;12.29;61.03
76448;BME280;65284;51.040;13.722;2023-03-14T11:07:32;97785.97;;;12.22;61.34
76448;BME280;65284;51.040;13.722;2023-03-14T11:10:31;97794.75;;;12.22;61.01
76448;BME280;65284;51.040;13.722;2023-03-14T11:13:24;97791.50;;;12.20;61.41
76448;BME280;65284;51.040;13.722;2023-03-14T11:16:22;97781.47;;;12.22;60.67
76448;BME280;65284;51.040;13.722;2023-03-14T11:22:14;97779.75;;;12.28;60.92
76448;BME280;65284;51.040;13.722;2023-03-14T11:27:48;97772.69;;;12.34;60.79
76448;BME280;65284;51.040;13.722;2023-03-14T11:33:04;97776.34;;;12.74;59.91
76448;BME280;65284;51.040;13.722;2023-03-14T11:35:38;97770.19;;;12.62;60.16
76448;BME280;65284;51.040;13.722;2023-03-14T11:38:24;97765.69;;;12.74;59.60
76448;BME280;65284;51.040;13.722;2023-03-14T11:40:57;97759.00;;;12.84;59.81
76448;BME280;65284;51.040;13.722;2023-03-14T11:43:33;97757.97;;;12.85;59.47
76448;BME280;65284;51.040;13.722;2023-03-14T11:46:05;97750.56;;;12.87;58.92
76448;BME280;65284;51.040;13.722;2023-03-14T11:48:42;97738.50;;;12.96;59.11
76448;BME280;65284;51.040;13.722;2023-03-14T11:51:16;97743.03;;;12.84;58.70
76448;BME280;65284;51.040;13.722;2023-03-14T11:56:44;97737.91;;;12.70;59.31
76448;BME280;65284;51.040;13.722;2023-03-14T11:59:27;97736.41;;;12.74;59.39
76448;BME280;65284;51.040;13.722;2023-03-14T12:01:58;97726.81;;;12.73;59.68
76448;BME280;65284;51.040;13.722;2023-03-14T12:05:04;97727.38;;;12.75;59.38
76448;BME280;65284;51.040;13.722;2023-03-14T12:10:39;97726.47;;;13.05;58.42
76448;BME280;65284;51.040;13.722;2023-03-14T12:13:08;97716.72;;;12.99;58.18
76448;BME280;65284;51.040;13.722;2023-03-14T12:15:55;97717.88;;;13.03;57.78
76448;BME280;65284;51.040;13.722;2023-03-14T12:18:35;97710.00;;;13.08;58.17
76448;BME280;65284;51.040;13.722;2023-03-14T12:21:07;97714.75;;;13.30;57.56
76448;BME280;65284;51.040;13.722;2023-03-14T12:23:52;97702.00;;;13.20;58.11
76448;BME280;65284;51.040;13.722;2023-03-14T12:26:22;97709.41;;;13.30;57.62
76448;BME280;65284;51.040;13.722;2023-03-14T12:31:37;97694.78;;;13.44;57.60
76448;BME280;65284;51.040;13.722;2023-03-14T12:39:37;97698.28;;;13.33;58.44
76448;BME280;65284;51.040;13.722;2023-03-14T12:45:29;97713.91;;;13.41;57.81
76448;BME280;65284;51.040;13.722;2023-03-14T12:48:03;97718.09;;;13.37;57.49
76448;BME280;65284;51.040;13.722;2023-03-14T12:50:47;97710.47;;;13.29;57.71
76448;BME280;65284;51.040;13.722;2023-03-14T12:53:29;97697.22;;;13.34;58.14
76448;BME280;65284;51.040;13.722;2023-03-14T12:59:13;97687.13;;;13.36;57.81
76448;BME280;65284;51.040;13.722;2023-03-14T13:04:45;97684.94;;;13.33;56.83
76448;BME280;65284;51.040;13.722;2023-03-14T13:07:30;97667.19;;;13.38;56.73
76448;BME280;65284;51.040;13.722;2023-03-14T13:12:39;97667.19;;;13.38;57.16
76448;BME280;65284;51.040;13.722;2023-03-14T13:15:27;97667.38;;;13.49;56.97
76448;BME280;65284;51.040;13.722;2023-03-14T13:17:59;97685.63;;;13.40;56.58
76448;BME280;65284;51.040;13.722;2023-03-14T13:20:34;97676.38;;;13.31;56.86
76448;BME280;65284;51.040;13.722;2023-03-14T13:23:01;97688.09;;;13.30;57.13
76448;BME280;65284;51.040;13.722;2023-03-14T13:25:35;97669.59;;;13.52;57.31
76448;BME280;65284;51.040;13.722;2023-03-14T13:28:02;97657.94;;;13.70;56.70
76448;BME280;65284;51.040;13.722;2023-03-14T13:30:39;97663.75;;;13.67;55.76
76448;BME280;65284;51.040;13.722;2023-03-14T13:33:06;97667.56;;;13.71;55.90
76448;BME280;65284;51.040;13.722;2023-03-14T13:35:57;97671.81;;;13.72;55.45
76448;BME280;65284;51.040;13.722;2023-03-14T13:38:26;97661.31;;;13.65;56.60
76448;BME280;65284;51.040;13.722;2023-03-14T13:40:54;97666.31;;;13.61;56.28
76448;BME280;65284;51.040;13.722;2023-03-14T13:43:29;97659.53;;;13.71;56.14